Time,TemperatureF,DewpointF,PressureIn,WindDirection,WindDirectionDegrees,WindSpeedMPH,WindSpeedGustMPH,Humidity,HourlyPrecipIn,Conditions,Clouds,dailyrainin,SolarRadiationWatts/m^2,SoftwareType,DateUTC
2013-06-30 00:11:00,49.1,38.0,29.76,WSW,244,1.0,2.0,66,0.00,,,0.17,0,weatherlink.com 1.10,2013-06-30 06:11:00,
2013-06-30 00:26:00,47.4,38.0,29.76,WSW,244,0.0,1.0,70,0.00,,,0.00,0,weatherlink.com 1.10,2013-06-30 06:26:00,
2013-06-30 00:41:00,45.7,39.0,29.76,WSW,244,0.0,2.0,76,0.00,,,0.00,0,weatherlink.com 1.10,2013-06-30 06:41:00,
2013-06-30 00:56:00,45.9,38.0,29.76,WSW,244,0.0,0.0,75,0.00,,,0.00,0,weatherlink.com 1.10,2013-06-30 06:56:00,
2013-06-30 01:11:00,46.4,39.0,29.77,WSW,244,0.0,0.0,75,0.00,,,0.00,0,weatherlink.com 1.10,2013-06-30 07:11:00,
2013-06-30 01:26:00,45.5,39.0,29.76,WSW,244,0.0,1.0,77,0.00,,,0.00,0,weatherlink.com 1.10,2013-06-30 07:26:00,
2013-06-30 01:41:00,45.7,40.0,29.76,SW,232,0.0,0.0,79,0.00,,,0.00,0,weatherlink.com 1.10,2013-06-30 07:41:00,
2013-06-30 01:56:00,46.0,40.0,29.75,SW,232,0.0,0.0,78,0.00,,,0.00,0,weatherlink.com 1.10,2013-06-30 07:56:00,
2013-06-30 02:11:00,46.3,39.0,29.76,SW,232,0.0,0.0,77,0.00,,,0.00,0,weatherlink.com 1.10,2013-06-30 08:11:00,
2013-06-30 02:26:00,45.5,39.0,29.76,SW,232,0.0,0.0,79,0.00,,,0.00,0,weatherlink.com 1.10,2013-06-30 08:26:00,
2013-06-30 02:41:00,45.6,39.0,29.75,SW,232,0.0,0.0,78,0.00,,,0.00,0,weatherlink.com 1.10,2013-06-30 08:41:00,
2013-06-30 02:56:00,44.9,39.0,29.74,SW,232,2.0,2.0,80,0.00,,,0.00,0,weatherlink.com 1.10,2013-06-30 08:56:00,
2013-06-30 03:11:00,45.3,40.0,29.74,SW,232,0.0,2.0,80,0.00,,,0.00,0,weatherlink.com 1.10,2013-06-30 09:11:00,
2013-06-30 03:26:00,46.4,40.0,29.74,SW,232,0.0,0.0,78,0.00,,,0.00,0,weatherlink.com 1.10,2013-06-30 09:26:00,
2013-06-30 03:41:00,46.4,40.0,29.73,SW,232,0.0,1.0,78,0.00,,,0.00,0,weatherlink.com 1.10,2013-06-30 09:41:00,
2013-06-30 03:56:00,46.1,40.0,29.72,SW,232,1.0,2.0,78,0.00,,,0.00,0,weatherlink.com 1.10,2013-06-30 09:56:00,
2013-06-30 04:11:00,46.1,39.0,29.72,ESE,118,0.0,4.0,76,0.00,,,0.00,0,weatherlink.com 1.10,2013-06-30 10:11:00,
2013-06-30 04:26:00,45.8,38.0,29.71,ESE,118,0.0,2.0,75,0.00,,,0.00,0,weatherlink.com 1.10,2013-06-30 10:26:00,
2013-06-30 04:41:00,45.2,38.0,29.71,ESE,118,0.0,2.0,75,0.00,,,0.00,0,weatherlink.com 1.10,2013-06-30 10:41:00,
2013-06-30 04:56:00,45.1,38.0,29.72,ESE,118,1.0,1.0,75,0.00,,,0.00,0,weatherlink.com 1.10,2013-06-30 10:56:00,
2013-06-30 05:11:00,48.0,38.0,29.71,ESE,118,0.0,0.0,69,0.00,,,0.00,0,weatherlink.com 1.10,2013-06-30 11:11:00,
2013-06-30 05:26:00,48.8,38.0,29.72,ESE,118,0.0,0.0,67,0.00,,,0.00,0,weatherlink.com 1.10,2013-06-30 11:26:00,
2013-06-30 05:41:00,49.4,38.0,29.72,ESE,118,0.0,1.0,66,0.00,,,0.00,0,weatherlink.com 1.10,2013-06-30 11:41:00,
2013-06-30 05:56:00,49.2,38.0,29.72,ESE,118,0.0,2.0,66,0.00,,,0.00,7,weatherlink.com 1.10,2013-06-30 11:56:00,
2013-06-30 06:11:00,49.0,38.0,29.72,ESE,118,0.0,1.0,67,0.00,,,0.00,12,weatherlink.com 1.10,2013-06-30 12:11:00,
2013-06-30 06:26:00,48.8,40.0,29.72,ESE,119,0.0,2.0,72,0.00,,,0.00,65,weatherlink.com 1.10,2013-06-30 12:26:00,
2013-06-30 06:41:00,50.5,41.0,29.72,SE,126,0.0,2.0,71,0.00,,,0.00,107,weatherlink.com 1.10,2013-06-30 12:41:00,
2013-06-30 06:56:00,52.8,42.0,29.72,SE,126,0.0,1.0,67,0.00,,,0.00,149,weatherlink.com 1.10,2013-06-30 12:56:00,
2013-06-30 07:11:00,54.4,41.0,29.71,SE,127,0.0,1.0,62,0.00,,,0.00,190,weatherlink.com 1.10,2013-06-30 13:11:00,
2013-06-30 07:27:00,56.5,42.0,29.71,South,174,1.0,3.0,58,0.00,,,0.00,230,weatherlink.com 1.10,2013-06-30 13:27:00,
2013-06-30 07:42:00,57.5,42.0,29.71,SSW,200,0.0,3.0,56,0.00,,,0.00,272,weatherlink.com 1.10,2013-06-30 13:42:00,
2013-06-30 07:57:00,57.9,43.0,29.71,SW,221,0.0,2.0,58,0.00,,,0.00,318,weatherlink.com 1.10,2013-06-30 13:57:00,
2013-06-30 08:12:00,58.0,44.0,29.70,WSW,246,0.0,4.0,59,0.00,,,0.00,371,weatherlink.com 1.10,2013-06-30 14:12:00,
2013-06-30 08:27:00,59.1,43.0,29.70,WSW,246,0.0,3.0,56,0.00,,,0.00,417,weatherlink.com 1.10,2013-06-30 14:27:00,
2013-06-30 08:42:00,60.2,42.0,29.70,West,262,0.0,5.0,52,0.00,,,0.00,469,weatherlink.com 1.10,2013-06-30 14:42:00,
2013-06-30 08:57:00,61.7,44.0,29.70,West,278,1.0,4.0,53,0.00,,,0.00,527,weatherlink.com 1.10,2013-06-30 14:57:00,
2013-06-30 09:12:00,62.4,42.0,29.70,NNW,331,1.0,8.0,47,0.00,,,0.00,573,weatherlink.com 1.10,2013-06-30 15:12:00,
2013-06-30 09:27:00,63.5,42.0,29.69,WNW,301,1.0,4.0,45,0.00,,,0.00,621,weatherlink.com 1.10,2013-06-30 15:27:00,
2013-06-30 09:42:00,64.8,42.0,29.69,West,275,1.0,7.0,43,0.00,,,0.00,659,weatherlink.com 1.10,2013-06-30 15:42:00,
2013-06-30 09:57:00,66.1,42.0,29.69,West,267,2.0,4.0,42,0.00,,,0.00,708,weatherlink.com 1.10,2013-06-30 15:57:00,
2013-06-30 10:12:00,66.6,43.0,29.69,NW,311,1.0,5.0,43,0.00,,,0.00,751,weatherlink.com 1.10,2013-06-30 16:12:00,
2013-06-30 10:27:00,68.2,42.0,29.68,NNW,347,1.0,6.0,39,0.00,,,0.00,788,weatherlink.com 1.10,2013-06-30 16:27:00,
2013-06-30 10:42:00,70.0,44.0,29.69,NW,304,3.0,7.0,40,0.00,,,0.00,828,weatherlink.com 1.10,2013-06-30 16:42:00,
2013-06-30 10:58:00,70.9,43.0,29.69,NNW,333,4.0,8.0,36,0.00,,,0.00,865,weatherlink.com 1.10,2013-06-30 16:58:00,
2013-06-30 11:13:00,71.3,41.0,29.68,WSW,256,0.0,5.0,33,0.00,,,0.00,902,weatherlink.com 1.10,2013-06-30 17:13:00,
2013-06-30 11:28:00,71.6,41.0,29.68,North,355,0.0,8.0,33,0.00,,,0.00,925,weatherlink.com 1.10,2013-06-30 17:28:00,
2013-06-30 11:43:00,72.6,42.0,29.67,WNW,302,1.0,8.0,33,0.00,,,0.00,946,weatherlink.com 1.10,2013-06-30 17:43:00,
2013-06-30 11:58:00,74.1,43.0,29.67,WNW,289,6.0,8.0,33,0.00,,,0.00,1028,weatherlink.com 1.10,2013-06-30 17:58:00,
2013-06-30 12:13:00,74.1,40.0,29.66,NNW,333,3.0,10.0,29,0.00,,,0.00,1000,weatherlink.com 1.10,2013-06-30 18:13:00,
2013-06-30 12:28:00,74.4,39.0,29.66,NNW,345,1.0,13.0,28,0.00,,,0.00,234,weatherlink.com 1.10,2013-06-30 18:28:00,
2013-06-30 12:43:00,70.8,38.0,29.66,NW,324,5.0,8.0,30,0.00,,,0.00,255,weatherlink.com 1.10,2013-06-30 18:43:00,
2013-06-30 12:58:00,69.4,39.0,29.66,NW,325,0.0,6.0,33,0.00,,,0.00,153,weatherlink.com 1.10,2013-06-30 18:58:00,
2013-06-30 13:13:00,65.7,34.0,29.66,NE,55,7.0,18.0,31,0.00,,,0.00,123,weatherlink.com 1.10,2013-06-30 19:13:00,
2013-06-30 13:28:00,68.1,36.0,29.65,East,80,3.0,8.0,31,0.00,,,0.00,1095,weatherlink.com 1.10,2013-06-30 19:28:00,
2013-06-30 13:43:00,72.1,38.0,29.64,East,97,7.0,11.0,29,0.00,,,0.00,1164,weatherlink.com 1.10,2013-06-30 19:43:00,
2013-06-30 13:58:00,64.2,46.0,29.63,ESE,108,14.0,24.0,51,0.00,,,0.00,197,weatherlink.com 1.10,2013-06-30 19:58:00,
2013-06-30 14:13:00,61.3,46.0,29.64,ESE,113,15.0,23.0,57,0.00,,,0.00,343,weatherlink.com 1.10,2013-06-30 20:13:00,
2013-06-30 14:28:00,62.7,46.0,29.63,SE,126,13.0,21.0,54,0.00,,,0.00,1267,weatherlink.com 1.10,2013-06-30 20:28:00,
2013-06-30 14:43:00,60.6,48.0,29.63,ESE,106,17.0,22.0,63,0.00,,,0.00,388,weatherlink.com 1.10,2013-06-30 20:43:00,
2013-06-30 14:58:00,59.5,47.0,29.63,ESE,109,14.0,27.0,64,0.00,,,0.00,287,weatherlink.com 1.10,2013-06-30 20:58:00,
2013-06-30 15:13:00,57.5,46.0,29.63,ESE,103,16.0,23.0,65,0.00,,,0.00,84,weatherlink.com 1.10,2013-06-30 21:13:00,
2013-06-30 15:28:00,54.6,46.0,29.67,ESE,105,23.0,35.0,73,0.00,,,0.00,12,weatherlink.com 1.10,2013-06-30 21:28:00,
2013-06-30 15:43:00,52.2,48.0,29.73,East,90,6.0,22.0,84,0.02,,,0.02,9,weatherlink.com 1.10,2013-06-30 21:43:00,
2013-06-30 15:58:00,51.2,48.0,29.71,ESE,111,11.0,24.0,89,0.10,,,0.10,65,weatherlink.com 1.10,2013-06-30 21:58:00,
2013-06-30 16:13:00,51.6,48.0,29.70,ESE,106,13.0,18.0,88,0.10,,,0.10,162,weatherlink.com 1.10,2013-06-30 22:13:00,
2013-06-30 16:28:00,51.1,47.0,29.71,East,93,8.0,17.0,87,0.10,,,0.10,216,weatherlink.com 1.10,2013-06-30 22:28:00,
2013-06-30 16:43:00,50.7,47.0,29.72,ESE,106,16.0,22.0,86,0.08,,,0.10,128,weatherlink.com 1.10,2013-06-30 22:43:00,
2013-06-30 16:58:00,50.0,46.0,29.70,East,92,13.0,21.0,86,0.01,,,0.11,54,weatherlink.com 1.10,2013-06-30 22:58:00,
2013-06-30 17:13:00,49.8,45.0,29.69,SE,136,8.0,12.0,84,0.01,,,0.11,46,weatherlink.com 1.10,2013-06-30 23:13:00,
2013-06-30 17:28:00,49.6,46.0,29.67,ESE,109,5.0,12.0,86,0.01,,,0.11,47,weatherlink.com 1.10,2013-06-30 23:28:00,
2013-06-30 17:43:00,51.8,47.0,29.68,East,86,7.0,10.0,84,0.01,,,0.11,610,weatherlink.com 1.10,2013-06-30 23:43:00,
2013-06-30 17:58:00,55.1,44.0,29.70,ENE,61,11.0,12.0,67,0.00,,,0.11,102,weatherlink.com 1.10,2013-06-30 23:58:00,
2013-06-30 18:13:00,53.5,46.0,29.70,NW,319,3.0,7.0,77,0.00,,,0.11,54,weatherlink.com 1.10,2013-07-01 00:13:00,
2013-06-30 18:28:00,53.0,47.0,29.66,South,186,1.0,4.0,79,0.00,,,0.11,111,weatherlink.com 1.10,2013-07-01 00:28:00,
2013-06-30 18:43:00,53.3,48.0,29.67,ENE,65,0.0,1.0,81,0.00,,,0.11,134,weatherlink.com 1.10,2013-07-01 00:43:00,
2013-06-30 18:58:00,54.4,48.0,29.68,West,269,2.0,6.0,79,0.00,,,0.11,69,weatherlink.com 1.10,2013-07-01 00:58:00,
2013-06-30 19:13:00,53.6,47.0,29.68,WSW,252,1.0,6.0,77,0.00,,,0.11,30,weatherlink.com 1.10,2013-07-01 01:13:00,
2013-06-30 19:28:00,52.2,47.0,29.68,SSE,165,1.0,4.0,82,0.00,,,0.11,47,weatherlink.com 1.10,2013-07-01 01:28:00,
2013-06-30 19:43:00,51.9,46.0,29.70,SSE,156,0.0,6.0,80,0.00,,,0.11,62,weatherlink.com 1.10,2013-07-01 01:43:00,
2013-06-30 19:58:00,52.3,47.0,29.71,SSE,157,2.0,3.0,81,0.00,,,0.11,37,weatherlink.com 1.10,2013-07-01 01:58:00,
2013-06-30 20:13:00,52.3,47.0,29.72,ESE,110,2.0,4.0,82,0.00,,,0.11,12,weatherlink.com 1.10,2013-07-01 02:13:00,
2013-06-30 20:28:00,51.3,46.0,29.73,ESE,107,2.0,5.0,83,0.00,,,0.11,0,weatherlink.com 1.10,2013-07-01 02:28:00,
2013-06-30 20:43:00,50.1,46.0,29.74,ESE,108,3.0,4.0,85,0.00,,,0.11,0,weatherlink.com 1.10,2013-07-01 02:43:00,
2013-06-30 20:58:00,48.9,46.0,29.75,ESE,111,1.0,4.0,88,0.00,,,0.11,0,weatherlink.com 1.10,2013-07-01 02:58:00,
2013-06-30 21:13:00,48.3,46.0,29.76,ESE,117,2.0,4.0,90,0.00,,,0.11,0,weatherlink.com 1.10,2013-07-01 03:13:00,
2013-06-30 21:28:00,48.3,45.0,29.77,ESE,116,0.0,3.0,88,0.00,,,0.11,0,weatherlink.com 1.10,2013-07-01 03:28:00,
2013-06-30 21:43:00,48.8,45.0,29.79,ESE,113,1.0,2.0,88,0.00,,,0.11,0,weatherlink.com 1.10,2013-07-01 03:43:00,
2013-06-30 21:58:00,48.4,45.0,29.76,WSW,250,3.0,6.0,89,0.01,,,0.12,0,weatherlink.com 1.10,2013-07-01 03:58:00,
2013-06-30 22:13:00,48.6,45.0,29.73,SSE,151,4.0,5.0,87,0.01,,,0.12,0,weatherlink.com 1.10,2013-07-01 04:13:00,
2013-06-30 22:28:00,48.7,44.0,29.75,ESE,120,0.0,3.0,83,0.01,,,0.12,0,weatherlink.com 1.10,2013-07-01 04:28:00,
2013-06-30 22:43:00,48.6,43.0,29.76,ESE,120,1.0,2.0,81,0.01,,,0.12,0,weatherlink.com 1.10,2013-07-01 04:43:00,
2013-06-30 22:59:00,47.6,43.0,29.77,SW,223,0.0,3.0,83,0.00,,,0.12,0,weatherlink.com 1.10,2013-07-01 04:59:00,
2013-06-30 23:14:00,46.8,42.0,29.76,South,190,0.0,2.0,84,0.00,,,0.12,0,weatherlink.com 1.10,2013-07-01 05:14:00,
2013-06-30 23:29:00,46.0,41.0,29.76,SE,144,0.0,2.0,84,0.00,,,0.12,0,weatherlink.com 1.10,2013-07-01 05:29:00,
2013-06-30 23:44:00,45.4,41.0,29.76,SE,144,0.0,1.0,85,0.00,,,0.12,0,weatherlink.com 1.10,2013-07-01 05:44:00,
2013-06-30 23:59:00,45.5,41.0,29.75,SE,144,0.0,1.0,84,0.00,,,0.12,0,weatherlink.com 1.10,2013-07-01 05:59:00,